createdAt,value
2022-12-11T00:00:29.216Z,21.83
2022-12-11T00:01:30.691Z,22.15
2022-12-11T00:02:32.217Z,19.58
2022-12-11T00:03:34.032Z,20.25
2022-12-11T00:04:35.739Z,23.83
2022-12-11T00:05:40.359Z,18.83
2022-12-11T00:06:42.554Z,23.05
2022-12-11T00:07:44.133Z,22.35
2022-12-11T00:08:45.876Z,20.52
2022-12-11T00:09:47.303Z,22.25
2022-12-11T00:10:49.804Z,21.80
2022-12-11T00:11:51.269Z,21.38
2022-12-11T00:12:53.084Z,21.20
2022-12-11T00:13:54.542Z,20.73
2022-12-11T00:14:56.018Z,18.52
2022-12-11T00:16:00.566Z,20.73
2022-12-11T00:17:02.115Z,20.25
2022-12-11T00:18:03.942Z,22.20
2022-12-11T00:19:05.801Z,21.55
2022-12-11T00:20:08.232Z,21.90
2022-12-11T00:21:14.276Z,20.55
2022-12-11T00:22:16.767Z,20.98
2022-12-11T00:23:18.519Z,20.77
2022-12-11T01:12:41.561Z,20.02
2022-12-11T01:13:43.307Z,20.52
2022-12-11T01:14:44.749Z,25.63
2022-12-11T01:15:46.189Z,32.25
2022-12-11T01:16:47.716Z,29.35
2022-12-11T01:17:51.103Z,26.52
2022-12-11T01:18:52.533Z,25.10
2022-12-11T01:19:54.694Z,25.45
2022-12-11T01:20:56.118Z,23.55
2022-12-11T01:21:57.639Z,22.88
2022-12-11T01:23:01.060Z,22.60
2022-12-11T01:24:02.561Z,20.48
2022-12-11T01:25:05.241Z,21.45
2022-12-11T01:26:09.662Z,19.08
2022-12-11T01:27:11.078Z,20.75
2022-12-11T01:28:12.871Z,19.13
2022-12-11T01:29:14.369Z,20.00
2022-12-11T01:30:15.810Z,20.73
2022-12-11T01:31:19.019Z,20.02
2022-12-11T01:32:23.908Z,19.83
2022-12-11T01:33:28.816Z,19.77
2022-12-11T01:34:34.288Z,18.48
2022-12-11T01:35:36.531Z,19.42
2022-12-11T01:36:38.218Z,17.90
2022-12-11T01:37:40.096Z,20.83
2022-12-11T01:38:41.952Z,19.17
2022-12-11T01:39:43.383Z,20.45
2022-12-11T01:40:49.552Z,19.52
2022-12-11T01:41:53.539Z,20.70
2022-12-11T01:42:55.013Z,20.17
2022-12-11T01:44:31.435Z,19.05
2022-12-11T01:45:42.955Z,24.25
2022-12-11T01:46:44.463Z,22.20
2022-12-11T01:47:45.907Z,22.52
2022-12-11T01:48:50.752Z,21.52
2022-12-11T01:49:52.248Z,22.20
2022-12-11T01:50:56.461Z,20.27
2022-12-11T01:52:02.512Z,19.90
2022-12-11T01:53:08.340Z,20.58
2022-12-11T01:54:12.420Z,21.42
2022-12-11T01:55:14.955Z,19.45
2022-12-11T01:56:16.911Z,21.55
2022-12-11T01:57:18.455Z,20.75
2022-12-11T01:58:23.379Z,18.40
2022-12-11T01:59:29.162Z,20.40
2022-12-11T02:00:30.633Z,22.35
2022-12-11T02:01:34.506Z,20.98
2022-12-11T02:02:36.466Z,19.08
2022-12-11T02:03:37.961Z,20.02
2022-12-11T02:04:42.522Z,20.40
2022-12-11T02:05:44.275Z,18.85
2022-12-11T02:06:49.575Z,20.13
2022-12-11T02:07:56.057Z,19.17
2022-12-11T02:08:58.202Z,20.25
2022-12-11T02:10:02.367Z,21.48
2022-12-11T02:11:16.814Z,21.52
2022-12-11T02:12:57.575Z,21.90
2022-12-11T02:14:28.150Z,19.80
2022-12-11T02:15:41.899Z,22.00
2022-12-11T02:16:55.342Z,20.10
2022-12-11T02:18:31.420Z,23.80
2022-12-11T02:20:04.150Z,22.98
2022-12-11T02:21:24.309Z,21.77
2022-12-11T02:22:58.743Z,20.85
2022-12-11T02:24:31.576Z,21.20
2022-12-11T02:26:07.653Z,22.27
2022-12-11T02:27:28.829Z,19.23
2022-12-11T02:28:34.971Z,19.25
2022-12-11T02:29:45.126Z,22.95
2022-12-11T02:30:51.872Z,23.88
2022-12-11T02:32:16.331Z,21.88
2022-12-11T02:33:31.967Z,21.95
2022-12-11T02:34:50.681Z,21.50
2022-12-11T02:35:52.939Z,19.65
2022-12-11T02:37:02.335Z,20.35
2022-12-11T02:38:08.809Z,19.75
2022-12-11T02:39:13.421Z,22.98
2022-12-11T02:40:20.492Z,21.45
2022-12-11T02:41:24.187Z,20.50
2022-12-11T02:42:30.619Z,22.88
2022-12-11T02:43:34.290Z,21.90
2022-12-11T02:44:38.149Z,22.33
2022-12-11T02:45:42.504Z,21.60
2022-12-11T02:46:44.628Z,22.48
2022-12-11T02:47:47.946Z,22.85
2022-12-11T02:48:51.389Z,20.98
2022-12-11T02:49:55.690Z,20.85
2022-12-11T02:50:59.567Z,21.00
2022-12-11T02:52:03.938Z,19.77
2022-12-11T02:53:07.080Z,25.65
2022-12-11T02:55:15.980Z,22.08
2022-12-11T02:56:26.120Z,23.52
2022-12-11T02:57:39.710Z,23.10
2022-12-11T02:58:49.954Z,24.38
2022-12-11T02:59:54.569Z,23.65
2022-12-11T03:00:56.261Z,23.58
2022-12-11T03:01:57.929Z,23.58
2022-12-11T03:02:59.557Z,26.17
2022-12-11T03:04:01.190Z,23.33
2022-12-11T03:05:03.043Z,25.52
2022-12-11T03:06:04.794Z,23.30
2022-12-11T03:07:17.097Z,24.00
2022-12-11T03:08:18.659Z,23.20
2022-12-11T03:09:22.257Z,23.35
2022-12-11T03:10:23.758Z,23.80
2022-12-11T03:11:25.209Z,23.73
2022-12-11T03:12:34.128Z,26.00
2022-12-11T03:13:35.577Z,24.40
2022-12-11T03:14:39.347Z,26.52
2022-12-11T03:15:58.762Z,22.75
2022-12-11T03:17:08.001Z,23.15
2022-12-11T03:19:39.805Z,21.60
2022-12-11T03:20:45.242Z,22.08
2022-12-11T03:21:59.075Z,24.63
2022-12-11T03:23:09.438Z,21.90
2022-12-11T03:24:44.081Z,24.58
2022-12-11T03:26:06.663Z,22.92
2022-12-11T03:27:27.469Z,21.45
2022-12-11T03:28:58.605Z,20.33
2022-12-11T03:30:20.471Z,22.10
2022-12-11T03:31:32.052Z,23.80
2022-12-11T03:32:47.903Z,21.20
2022-12-11T03:33:54.736Z,22.23
2022-12-11T03:35:06.109Z,23.70
2022-12-11T03:36:12.875Z,22.83
2022-12-11T03:37:15.644Z,24.45
2022-12-11T03:38:25.584Z,22.23
2022-12-11T03:39:38.819Z,22.45
2022-12-11T03:40:44.374Z,24.65
2022-12-11T03:41:48.910Z,22.95
2022-12-11T03:42:52.571Z,24.02
2022-12-11T03:43:58.136Z,25.05
2022-12-11T03:45:01.934Z,22.75
2022-12-11T03:46:03.909Z,23.27
2022-12-11T03:47:08.070Z,24.42
2022-12-11T03:48:11.349Z,23.20
2022-12-11T03:49:20.784Z,22.48
2022-12-11T03:50:23.877Z,22.73
2022-12-11T03:52:29.272Z,23.10
2022-12-11T03:54:34.766Z,21.88
2022-12-11T03:55:38.394Z,20.02
2022-12-11T03:56:43.904Z,21.73
2022-12-11T03:57:45.481Z,22.27
2022-12-11T03:58:46.950Z,19.13
2022-12-11T03:59:49.864Z,22.85
2022-12-11T04:00:51.335Z,20.80
2022-12-11T04:01:53.284Z,21.02
2022-12-11T04:03:14.060Z,20.55
2022-12-11T04:04:16.183Z,19.33
2022-12-11T04:05:17.677Z,19.10
2022-12-11T04:06:19.246Z,20.38
2022-12-11T04:07:20.668Z,19.33
2022-12-11T04:08:22.889Z,18.00
2022-12-11T04:09:24.361Z,18.90
2022-12-11T04:10:26.155Z,20.70
2022-12-11T04:11:36.881Z,20.10
2022-12-11T04:12:38.307Z,19.35
2022-12-11T04:13:41.311Z,18.75
2022-12-11T04:15:01.085Z,18.05
2022-12-11T04:16:02.885Z,17.25
2022-12-11T04:17:05.001Z,18.98
2022-12-11T04:18:25.894Z,18.73
2022-12-11T04:19:45.866Z,18.20
2022-12-11T04:21:06.150Z,19.55
2022-12-11T04:22:28.082Z,18.00
2022-12-11T04:23:48.375Z,19.85
2022-12-11T04:24:50.438Z,19.42
2022-12-11T04:25:52.240Z,19.73
2022-12-11T04:26:53.785Z,19.92
2022-12-11T04:27:55.185Z,18.27
2022-12-11T04:28:56.639Z,19.70
2022-12-11T04:29:58.106Z,20.00
2022-12-11T04:31:00.301Z,18.48
2022-12-11T04:32:01.785Z,21.05
2022-12-11T04:33:04.202Z,18.25
2022-12-11T04:34:05.796Z,17.67
2022-12-11T04:35:09.730Z,22.00
2022-12-11T04:36:13.071Z,17.92
2022-12-11T04:38:15.958Z,19.48
2022-12-11T04:39:17.495Z,21.23
2022-12-11T04:40:20.165Z,19.45
2022-12-11T04:41:21.672Z,19.73
2022-12-11T04:42:23.148Z,19.73
2022-12-11T04:43:24.588Z,19.13
2022-12-11T04:44:26.062Z,20.20
2022-12-11T04:45:27.498Z,21.40
2022-12-11T04:46:29.478Z,19.42
2022-12-11T04:47:30.972Z,20.38
2022-12-11T04:48:32.608Z,19.10
2022-12-11T04:49:34.050Z,21.25
2022-12-11T04:50:35.491Z,19.45
2022-12-11T04:51:37.239Z,19.67
2022-12-11T04:52:39.118Z,19.95
2022-12-11T04:53:41.164Z,20.38
2022-12-11T04:54:42.584Z,21.70
2022-12-11T04:55:44.041Z,20.13
2022-12-11T04:56:45.844Z,19.98
2022-12-11T04:57:47.328Z,21.25
2022-12-11T04:58:49.535Z,20.38
2022-12-11T04:59:51.133Z,21.58
2022-12-11T05:00:53.486Z,19.85
2022-12-11T05:01:55.316Z,19.30
2022-12-11T05:02:56.797Z,20.98
2022-12-11T05:03:59.600Z,19.58
2022-12-11T05:05:01.148Z,20.30
2022-12-11T05:06:02.672Z,18.63
2022-12-11T05:07:04.643Z,17.92
2022-12-11T05:08:06.227Z,18.17
2022-12-11T05:09:12.072Z,18.88
2022-12-11T05:10:13.513Z,20.85
2022-12-11T05:11:16.182Z,19.52
2022-12-11T05:12:17.963Z,19.95
2022-12-11T05:13:19.404Z,17.73
2022-12-11T05:14:21.168Z,15.80
2022-12-11T05:15:22.864Z,19.35
2022-12-11T05:16:24.390Z,18.10
2022-12-11T05:17:26.280Z,17.92
2022-12-11T05:18:27.708Z,19.50
2022-12-11T05:19:29.194Z,18.20
2022-12-11T05:20:30.628Z,18.45
2022-12-11T05:21:35.141Z,20.00
2022-12-11T05:22:38.540Z,19.30
2022-12-11T05:25:42.804Z,16.95
2022-12-11T05:26:44.751Z,18.77
2022-12-11T05:27:46.238Z,18.42
2022-12-11T05:28:54.226Z,19.27
2022-12-11T05:29:59.352Z,18.35
2022-12-11T05:31:08.021Z,17.67
2022-12-11T05:32:09.785Z,18.67
2022-12-11T05:33:11.211Z,19.52
2022-12-11T05:34:12.729Z,19.17
2022-12-11T05:35:14.246Z,16.60
2022-12-11T05:36:22.677Z,19.83
2022-12-11T05:37:24.752Z,18.77
2022-12-11T05:38:26.654Z,19.90
2022-12-11T05:39:28.108Z,19.48
2022-12-11T05:40:29.586Z,17.67
2022-12-11T05:41:32.736Z,19.67
2022-12-11T05:42:34.817Z,18.35
2022-12-11T05:43:37.082Z,20.15
2022-12-11T05:44:38.524Z,19.92
2022-12-11T05:45:39.957Z,19.95
2022-12-11T05:46:41.501Z,19.00
2022-12-11T05:47:43.354Z,20.52
2022-12-11T05:48:47.018Z,20.73
2022-12-11T05:49:48.540Z,21.20
2022-12-11T05:50:57.941Z,18.83
2022-12-11T05:51:59.512Z,19.40
2022-12-11T05:53:00.998Z,20.20
2022-12-11T05:54:03.005Z,21.80
2022-12-11T05:55:04.698Z,20.55
2022-12-11T05:56:17.779Z,21.23
2022-12-11T05:57:19.248Z,19.80
2022-12-11T05:58:21.596Z,22.65
2022-12-11T05:59:23.036Z,19.42
2022-12-11T06:00:24.456Z,19.95
2022-12-11T06:01:32.409Z,19.38
2022-12-11T06:02:37.765Z,19.42
2022-12-11T06:03:39.364Z,20.27
2022-12-11T06:04:40.881Z,20.98
2022-12-11T06:05:42.859Z,19.77
2022-12-11T06:06:44.711Z,22.98
2022-12-11T06:07:46.178Z,20.38
2022-12-11T06:08:51.179Z,19.38
2022-12-11T06:09:52.610Z,20.45
2022-12-11T06:10:54.110Z,21.00
2022-12-11T06:11:55.858Z,19.55
2022-12-11T06:12:57.302Z,19.83
2022-12-11T06:13:59.605Z,22.15
2022-12-11T06:15:01.042Z,21.13
2022-12-11T06:16:04.126Z,21.00
2022-12-11T06:17:06.003Z,21.48
2022-12-11T06:18:07.563Z,20.02
2022-12-11T06:19:18.348Z,20.25
2022-12-11T06:20:19.776Z,21.25
2022-12-11T06:21:23.155Z,21.27
2022-12-11T06:22:24.987Z,21.73
2022-12-11T06:23:26.426Z,21.00
2022-12-11T06:24:27.866Z,23.23
2022-12-11T06:25:30.141Z,21.02
2022-12-11T06:26:32.172Z,21.83
2022-12-11T06:27:34.059Z,21.83
2022-12-11T06:28:35.611Z,22.30
2022-12-11T06:29:37.050Z,22.50
2022-12-11T06:30:39.380Z,22.70
2022-12-11T06:31:41.280Z,21.55
2022-12-11T06:32:44.272Z,21.20
2022-12-11T06:33:46.233Z,21.42
2022-12-11T06:34:47.861Z,22.00
2022-12-11T06:35:49.262Z,23.30
2022-12-11T06:36:50.657Z,21.05
2022-12-11T06:37:52.190Z,22.23
2022-12-11T06:38:55.293Z,20.88
2022-12-11T06:41:01.171Z,21.17
2022-12-11T06:42:02.920Z,21.88
2022-12-11T06:43:04.312Z,22.48
2022-12-11T06:44:05.782Z,22.80
2022-12-11T06:45:07.674Z,20.85
2022-12-11T06:46:12.390Z,21.45
2022-12-11T06:47:14.262Z,21.38
2022-12-11T06:48:15.832Z,19.23
2022-12-11T06:49:17.299Z,21.50
2022-12-11T06:50:18.705Z,22.50
2022-12-11T06:51:22.234Z,22.90
2022-12-11T06:52:25.360Z,23.05
2022-12-11T06:54:28.611Z,21.02
2022-12-11T06:55:30.190Z,23.15
2022-12-11T06:56:34.153Z,22.05
2022-12-11T06:57:36.047Z,20.52
2022-12-11T06:58:38.712Z,21.35
2022-12-11T06:59:40.252Z,22.08
2022-12-11T07:00:41.769Z,23.38
2022-12-11T07:01:43.258Z,20.33
2022-12-11T07:02:45.140Z,22.45
2022-12-11T07:03:46.863Z,21.48
2022-12-11T07:04:53.386Z,18.92
2022-12-11T07:06:02.977Z,18.75
2022-12-11T07:07:04.392Z,18.08
2022-12-11T07:08:07.674Z,20.25
2022-12-11T07:09:10.027Z,19.52
2022-12-11T07:10:11.960Z,20.80
2022-12-11T07:11:15.299Z,19.27
2022-12-11T07:12:17.518Z,20.45
2022-12-11T07:13:19.305Z,18.60
2022-12-11T07:14:20.852Z,20.40
2022-12-11T07:15:22.452Z,20.08
2022-12-11T07:16:23.970Z,20.70
2022-12-11T07:17:25.476Z,17.08
2022-12-11T07:18:27.280Z,18.05
2022-12-11T07:19:28.830Z,20.77
2022-12-11T07:20:30.318Z,17.25
2022-12-11T07:21:32.219Z,18.23
2022-12-11T07:22:33.973Z,16.27
2022-12-11T07:23:35.634Z,17.95
2022-12-11T07:24:37.148Z,19.13
2022-12-11T07:25:38.600Z,19.42
2022-12-11T07:26:40.172Z,17.90
2022-12-11T07:27:42.156Z,20.15
2022-12-11T07:28:43.981Z,20.25
2022-12-11T07:29:45.448Z,18.73
2022-12-11T07:30:47.349Z,18.80
2022-12-11T07:31:48.862Z,18.70
2022-12-11T07:32:50.690Z,17.92
2022-12-11T07:33:57.396Z,19.83
2022-12-11T07:34:58.871Z,18.75
2022-12-11T07:36:03.270Z,19.92
2022-12-11T07:37:04.784Z,19.33
2022-12-11T07:38:06.235Z,20.38
2022-12-11T07:39:09.055Z,17.38
2022-12-11T07:40:11.043Z,16.58
2022-12-11T07:41:13.705Z,17.42
2022-12-11T07:42:15.149Z,19.52
2022-12-11T07:43:16.937Z,18.23
2022-12-11T07:44:18.387Z,17.38
2022-12-11T07:45:19.894Z,18.55
2022-12-11T07:46:24.348Z,20.67
2022-12-11T07:47:25.814Z,18.15
2022-12-11T07:48:27.637Z,20.00
2022-12-11T07:49:29.397Z,19.63
2022-12-11T07:50:35.096Z,18.75
2022-12-11T07:51:39.621Z,17.52
2022-12-11T07:52:41.126Z,18.55
2022-12-11T07:53:44.461Z,17.77
2022-12-11T07:54:45.897Z,17.40
2022-12-11T07:55:47.315Z,18.45
2022-12-11T07:56:53.388Z,17.60
2022-12-11T07:57:55.648Z,18.67
2022-12-11T07:59:03.531Z,17.10
2022-12-11T08:00:05.716Z,18.13
2022-12-11T08:01:13.402Z,19.20
2022-12-11T08:02:14.965Z,20.67
2022-12-11T08:03:17.354Z,21.27
2022-12-11T08:04:18.853Z,22.00
2022-12-11T08:05:20.286Z,19.65
2022-12-11T08:06:27.515Z,18.45
2022-12-11T08:07:28.986Z,18.40
2022-12-11T08:08:30.787Z,17.88
2022-12-11T08:09:32.427Z,18.70
2022-12-11T08:10:33.919Z,17.50
2022-12-11T08:11:35.584Z,20.58
2022-12-11T08:12:37.060Z,16.33
2022-12-11T08:13:38.766Z,17.27
2022-12-11T08:14:40.210Z,17.98
2022-12-11T08:15:41.773Z,16.20
2022-12-11T08:16:44.279Z,18.45
2022-12-11T08:17:45.779Z,17.65
2022-12-11T08:18:48.381Z,16.73
2022-12-11T08:19:49.805Z,16.52
2022-12-11T08:20:51.269Z,16.25
2022-12-11T08:21:52.718Z,17.00
2022-12-11T08:22:58.868Z,16.50
2022-12-11T08:24:01.038Z,18.50
2022-12-11T08:25:02.594Z,16.95
2022-12-11T08:26:10.039Z,16.30
2022-12-11T08:27:11.506Z,16.35
2022-12-11T08:28:13.315Z,16.95
2022-12-11T08:29:15.056Z,16.00
2022-12-11T08:30:16.597Z,16.40
2022-12-11T08:31:18.684Z,17.30
2022-12-11T08:32:20.165Z,17.45
2022-12-11T08:33:22.300Z,18.83
2022-12-11T08:34:23.816Z,16.73
2022-12-11T08:35:26.013Z,15.82
2022-12-11T08:36:27.595Z,17.10
2022-12-11T08:37:29.659Z,17.45
2022-12-11T08:38:31.830Z,16.38
2022-12-11T08:39:36.038Z,19.80
2022-12-11T08:40:37.559Z,17.83
2022-12-11T08:41:39.180Z,17.33
2022-12-11T08:42:40.658Z,16.17
2022-12-11T08:43:42.597Z,15.65
2022-12-11T08:44:44.035Z,18.73
2022-12-11T08:45:46.890Z,16.73
2022-12-11T08:46:48.496Z,17.23
2022-12-11T08:47:49.932Z,17.08
2022-12-11T08:48:52.325Z,16.42
2022-12-11T08:49:53.833Z,17.45
2022-12-11T08:50:55.389Z,16.42
2022-12-11T08:51:56.835Z,17.30
2022-12-11T08:52:58.296Z,16.98
2022-12-11T08:54:01.457Z,16.13
2022-12-11T08:55:03.351Z,17.77
2022-12-11T08:56:09.403Z,17.65
2022-12-11T08:57:10.899Z,17.88
2022-12-11T08:58:12.411Z,18.88
2022-12-11T08:59:14.158Z,17.55
2022-12-11T09:00:18.647Z,16.10
2022-12-11T09:01:23.534Z,16.77
2022-12-11T09:02:25.075Z,15.43
2022-12-11T09:03:26.909Z,23.05
2022-12-11T09:04:28.472Z,28.00
2022-12-11T09:05:30.248Z,31.65
2022-12-11T09:06:33.435Z,26.98
2022-12-11T09:07:36.922Z,22.63
2022-12-11T09:08:39.081Z,22.58
2022-12-11T09:09:40.634Z,18.55
2022-12-11T09:10:42.216Z,19.23
2022-12-11T09:11:43.689Z,17.08
2022-12-11T09:12:45.146Z,18.73
2022-12-11T09:13:47.153Z,18.10
2022-12-11T09:14:48.639Z,17.85
2022-12-11T09:15:50.097Z,17.83
2022-12-11T09:16:51.593Z,17.20
2022-12-11T09:17:53.027Z,15.98
2022-12-11T09:18:58.397Z,17.75
2022-12-11T09:19:59.959Z,19.02
2022-12-11T09:21:07.704Z,18.23
2022-12-11T09:22:11.194Z,19.38
2022-12-11T09:23:12.659Z,16.38
2022-12-11T09:24:15.474Z,19.52
2022-12-11T09:25:17.018Z,18.02
2022-12-11T09:26:19.083Z,17.55
2022-12-11T09:27:21.386Z,18.23
2022-12-11T09:28:23.544Z,18.65
2022-12-11T09:29:25.397Z,18.67
2022-12-11T09:30:26.856Z,19.70
2022-12-11T09:31:30.911Z,17.58
2022-12-11T09:32:32.439Z,15.35
2022-12-11T09:33:34.225Z,15.02
2022-12-11T09:34:35.712Z,16.55
2022-12-11T09:35:37.502Z,16.25
2022-12-11T09:36:40.373Z,16.67
2022-12-11T09:37:41.875Z,18.42
2022-12-11T09:38:46.382Z,18.23
2022-12-11T09:39:47.918Z,18.50
2022-12-11T09:40:49.387Z,16.55
2022-12-11T09:41:57.085Z,17.05
2022-12-11T09:43:06.428Z,16.42
2022-12-11T09:44:27.401Z,14.00
2022-12-11T09:45:29.211Z,17.48
2022-12-11T09:46:34.394Z,15.55
2022-12-11T09:47:50.356Z,15.65
2022-12-11T09:48:53.690Z,15.48
2022-12-11T09:50:04.989Z,15.00
2022-12-11T09:51:18.735Z,15.73
2022-12-11T09:52:35.964Z,14.80
2022-12-11T09:53:38.293Z,13.63
2022-12-11T09:54:52.849Z,16.13
2022-12-11T09:56:01.065Z,15.35
2022-12-11T09:57:35.927Z,15.40
2022-12-11T09:59:06.396Z,12.48
2022-12-11T10:00:19.156Z,13.25
2022-12-11T10:01:28.319Z,14.15
2022-12-11T10:02:38.853Z,14.25
2022-12-11T10:03:55.880Z,13.20
2022-12-11T10:05:26.478Z,12.35
2022-12-11T10:06:41.982Z,14.82
2022-12-11T10:08:00.670Z,19.05
2022-12-11T10:09:34.237Z,15.15
2022-12-11T10:10:56.637Z,17.15
2022-12-11T10:12:27.858Z,12.57
2022-12-11T10:13:43.550Z,13.32
2022-12-11T10:15:03.897Z,13.40
2022-12-11T10:16:22.934Z,13.93
2022-12-11T10:17:37.135Z,12.50
2022-12-11T10:18:39.294Z,14.55
2022-12-11T10:19:42.325Z,15.43
2022-12-11T10:20:45.271Z,13.20
2022-12-11T10:21:47.196Z,13.15
2022-12-11T10:22:51.462Z,24.67
2022-12-11T10:24:03.281Z,27.33
2022-12-11T10:25:23.553Z,26.48
2022-12-11T10:26:25.168Z,25.17
2022-12-11T10:27:31.981Z,25.63
2022-12-11T10:28:35.060Z,22.05
2022-12-11T10:30:41.200Z,16.27
2022-12-11T10:31:57.938Z,13.00
2022-12-11T10:33:08.059Z,15.18
2022-12-11T10:34:19.177Z,13.57
2022-12-11T10:35:29.393Z,12.93
2022-12-11T10:36:37.289Z,12.93
2022-12-11T10:37:39.644Z,16.55
2022-12-11T10:38:44.731Z,13.77
2022-12-11T10:39:46.183Z,13.23
2022-12-11T10:40:58.296Z,14.00
2022-12-11T10:41:59.777Z,14.48
2022-12-11T10:43:01.215Z,13.32
2022-12-11T10:44:15.397Z,13.27
2022-12-11T10:45:19.332Z,13.55
2022-12-11T10:46:29.357Z,14.05
2022-12-11T10:47:31.205Z,13.88
2022-12-11T10:48:33.163Z,14.85
2022-12-11T10:49:37.127Z,15.02
2022-12-11T10:50:38.995Z,15.23
2022-12-11T10:51:40.840Z,15.52
2022-12-11T10:52:45.456Z,13.32
2022-12-11T10:53:55.846Z,13.88
2022-12-11T10:55:08.751Z,14.38
2022-12-11T10:56:12.202Z,14.27
2022-12-11T10:57:14.626Z,15.05
2022-12-11T10:58:28.638Z,11.82
2022-12-11T10:59:44.312Z,14.02
2022-12-11T11:00:46.773Z,12.27
2022-12-11T11:01:48.380Z,14.55
2022-12-11T11:02:50.053Z,21.55
2022-12-11T11:04:03.181Z,22.98
2022-12-11T11:05:14.658Z,26.92
2022-12-11T11:06:19.785Z,23.13
2022-12-11T11:07:25.308Z,20.27
2022-12-11T11:08:27.912Z,17.08
2022-12-11T11:09:33.757Z,17.08
2022-12-11T11:10:35.950Z,16.38
2022-12-11T11:11:39.405Z,14.63
2022-12-11T11:12:42.132Z,13.68
2022-12-11T11:13:43.549Z,15.50
2022-12-11T11:14:44.990Z,14.15
2022-12-11T11:15:46.971Z,14.68
2022-12-11T11:16:55.101Z,14.90
2022-12-11T11:18:13.088Z,15.32
2022-12-11T11:19:33.801Z,13.88
2022-12-11T11:20:36.088Z,15.43
2022-12-11T11:21:37.604Z,14.43
2022-12-11T11:22:44.460Z,16.33
2022-12-11T11:23:50.569Z,14.95
2022-12-11T11:24:59.160Z,14.93
2022-12-11T11:26:06.380Z,14.45
2022-12-11T11:27:34.227Z,14.63
2022-12-11T11:28:39.820Z,14.35
2022-12-11T11:29:42.295Z,13.77
2022-12-11T11:30:57.492Z,15.07
2022-12-11T11:32:15.549Z,15.27
2022-12-11T11:33:22.093Z,15.23
2022-12-11T11:34:26.211Z,14.30
2022-12-11T11:35:30.487Z,15.60
2022-12-11T11:36:35.306Z,14.73
2022-12-11T11:37:38.628Z,13.80
2022-12-11T11:39:00.166Z,14.63
2022-12-11T11:42:18.044Z,15.52
2022-12-11T11:43:43.277Z,13.93
2022-12-11T11:44:58.469Z,14.27
2022-12-11T11:46:06.746Z,15.52
2022-12-11T11:47:17.395Z,15.27
2022-12-11T11:48:30.851Z,14.68
2022-12-11T11:49:55.635Z,13.73
2022-12-11T11:50:58.708Z,14.38
2022-12-11T11:53:13.588Z,14.07
2022-12-11T11:54:35.592Z,13.02
2022-12-11T11:55:42.169Z,12.98
2022-12-11T11:56:44.593Z,13.70
2022-12-11T11:58:14.400Z,16.70
2022-12-11T11:59:22.936Z,14.40
2022-12-11T12:00:31.927Z,15.45
2022-12-11T12:01:35.333Z,17.05
2022-12-11T12:02:37.506Z,14.18
2022-12-11T12:03:39.133Z,14.20
2022-12-11T12:04:40.941Z,13.25
2022-12-11T12:06:01.368Z,12.95
2022-12-11T12:07:30.864Z,12.80
2022-12-11T12:08:51.110Z,13.88
2022-12-11T12:10:04.511Z,11.88
2022-12-11T12:11:37.867Z,13.98
2022-12-11T12:13:04.100Z,14.32
2022-12-11T12:14:50.725Z,14.77
2022-12-11T12:15:58.718Z,15.20
2022-12-11T12:17:21.404Z,15.15
2022-12-11T12:18:48.389Z,14.48
2022-12-11T12:19:49.872Z,13.45
2022-12-11T12:21:15.170Z,13.65
2022-12-11T12:22:38.067Z,13.63
2022-12-11T12:24:04.021Z,12.32
2022-12-11T12:25:47.300Z,11.10
2022-12-11T12:27:50.434Z,11.82
2022-12-11T12:29:01.372Z,12.50
2022-12-11T12:30:18.773Z,12.70
2022-12-11T12:31:36.505Z,13.25
2022-12-11T12:32:44.005Z,12.40
2022-12-11T12:33:53.509Z,11.82
2022-12-11T12:35:34.776Z,13.27
2022-12-11T12:37:10.687Z,22.33
2022-12-11T12:38:31.151Z,13.70
2022-12-11T12:39:38.596Z,13.77
2022-12-11T12:40:48.521Z,11.77
2022-12-11T12:42:07.103Z,13.05
2022-12-11T12:43:27.564Z,11.68
2022-12-11T12:44:40.605Z,11.00
2022-12-11T12:46:21.543Z,13.02
2022-12-11T12:47:23.173Z,10.93
2022-12-11T12:48:27.292Z,11.90
2022-12-11T12:49:36.925Z,12.00
2022-12-11T12:50:48.749Z,12.18
2022-12-11T12:51:52.780Z,11.57
2022-12-11T12:52:56.022Z,11.45
2022-12-11T12:54:01.531Z,11.43
2022-12-11T12:55:18.921Z,10.60
2022-12-11T12:56:22.531Z,12.13
2022-12-11T12:57:24.553Z,11.07
2022-12-11T12:58:35.576Z,11.55
2022-12-11T12:59:37.110Z,11.07
2022-12-11T13:00:43.720Z,11.20
2022-12-11T13:01:52.595Z,10.27
2022-12-11T13:02:56.125Z,12.23
2022-12-11T13:04:04.031Z,10.70
2022-12-11T13:05:19.830Z,10.15
2022-12-11T13:06:33.174Z,11.95
2022-12-11T13:07:35.232Z,11.63
2022-12-11T13:08:50.371Z,11.38
2022-12-11T13:10:19.499Z,10.55
2022-12-11T13:11:30.824Z,9.63
2022-12-11T13:12:51.307Z,10.50
2022-12-11T13:14:06.397Z,11.18
2022-12-11T13:15:29.393Z,10.43
2022-12-11T13:16:39.889Z,11.23
2022-12-11T13:17:41.859Z,12.23
2022-12-11T13:18:45.310Z,13.40
2022-12-11T13:19:48.557Z,20.50
2022-12-11T13:20:51.156Z,14.85
2022-12-11T13:22:00.294Z,13.63
2022-12-11T13:23:07.500Z,12.60
2022-12-11T13:24:27.843Z,13.75
2022-12-11T13:25:31.922Z,11.43
2022-12-11T13:26:33.895Z,10.85
2022-12-11T13:27:35.589Z,9.38
2022-12-11T13:28:40.048Z,10.48
2022-12-11T13:29:42.488Z,9.98
2022-12-11T13:30:43.957Z,8.90
2022-12-11T13:31:45.846Z,9.05
2022-12-11T13:33:07.998Z,10.40
2022-12-11T13:34:23.821Z,11.52
2022-12-11T13:35:25.597Z,10.38
2022-12-11T13:36:31.670Z,11.02
2022-12-11T13:37:38.593Z,12.10
2022-12-11T13:38:48.167Z,11.82
2022-12-11T13:39:49.752Z,10.45
2022-12-11T13:40:55.389Z,11.02
2022-12-11T13:42:01.129Z,9.80
2022-12-11T13:43:08.319Z,9.98
2022-12-11T13:44:20.050Z,10.82
2022-12-11T13:45:43.284Z,10.82
2022-12-11T13:46:44.844Z,10.88
2022-12-11T13:47:48.026Z,9.60
2022-12-11T13:48:57.158Z,10.73
2022-12-11T13:50:18.660Z,9.43
2022-12-11T13:52:28.906Z,9.95
2022-12-11T13:53:30.799Z,9.93
2022-12-11T13:54:36.709Z,12.32
2022-12-11T13:55:38.147Z,10.68
2022-12-11T13:56:39.830Z,13.15
2022-12-11T13:57:46.089Z,11.30
2022-12-11T13:58:48.382Z,12.15
2022-12-11T13:59:55.222Z,11.38
2022-12-11T14:01:28.780Z,11.85
2022-12-11T14:02:35.383Z,10.77
2022-12-11T14:03:41.209Z,10.82
2022-12-11T14:04:42.903Z,10.32
2022-12-11T14:05:44.359Z,12.00
2022-12-11T14:06:45.939Z,9.75
2022-12-11T14:07:59.498Z,12.50
2022-12-11T14:09:03.173Z,11.10
2022-12-11T14:10:18.487Z,10.38
2022-12-11T14:11:27.955Z,12.55
2022-12-11T14:12:30.727Z,11.98
2022-12-11T14:13:36.259Z,13.07
2022-12-11T14:14:45.500Z,11.10
2022-12-11T14:16:52.386Z,12.45
2022-12-11T14:17:54.891Z,12.75
2022-12-11T14:19:04.567Z,11.98
2022-12-11T14:20:07.578Z,11.55
2022-12-11T14:22:22.255Z,12.00
2022-12-11T14:23:32.411Z,11.85
2022-12-11T14:24:33.879Z,12.73
2022-12-11T14:25:35.462Z,11.90
2022-12-11T14:26:39.486Z,10.88
2022-12-11T14:27:47.888Z,10.77
2022-12-11T14:28:50.285Z,12.63
2022-12-11T14:29:51.969Z,11.38
2022-12-11T14:30:56.387Z,13.07
2022-12-11T14:32:05.617Z,12.77
2022-12-11T14:34:21.458Z,9.65
2022-12-11T14:35:38.591Z,11.10
2022-12-11T14:36:42.311Z,12.35
2022-12-11T14:38:55.376Z,10.85
2022-12-11T14:40:01.759Z,23.63
2022-12-11T14:41:12.009Z,31.65
2022-12-11T14:42:24.743Z,30.05
2022-12-11T14:43:49.971Z,34.60
2022-12-11T14:44:58.487Z,29.05
2022-12-11T14:46:09.265Z,17.30
2022-12-11T14:47:25.529Z,12.32
2022-12-11T14:48:33.296Z,12.68
2022-12-11T14:49:37.527Z,12.00
2022-12-11T14:50:48.658Z,10.93
2022-12-11T14:51:51.717Z,11.63
2022-12-11T14:54:04.756Z,10.77
2022-12-11T14:55:13.162Z,10.65
2022-12-11T14:56:19.493Z,11.13
2022-12-11T14:57:26.137Z,10.05
2022-12-11T14:58:28.270Z,11.65
2022-12-11T14:59:32.464Z,11.10
2022-12-11T15:00:36.576Z,9.93
2022-12-11T15:01:39.239Z,12.57
2022-12-11T15:02:40.813Z,10.68
2022-12-11T15:03:43.009Z,11.88
2022-12-11T15:04:45.615Z,9.38
2022-12-11T15:05:55.790Z,12.40
2022-12-11T15:06:58.265Z,10.88
2022-12-11T15:08:03.027Z,11.80
2022-12-11T15:09:17.456Z,12.73
2022-12-11T15:10:32.885Z,11.52
2022-12-11T15:12:43.341Z,10.10
2022-12-11T15:13:57.912Z,12.77
2022-12-11T15:15:06.803Z,10.40
2022-12-11T15:16:08.610Z,10.35
2022-12-11T15:17:14.571Z,11.77
2022-12-11T15:18:33.486Z,10.60
2022-12-11T15:19:36.259Z,11.15
2022-12-11T15:20:37.938Z,11.23
2022-12-11T15:21:39.451Z,11.75
2022-12-11T15:22:44.436Z,12.07
2022-12-11T15:23:46.195Z,11.80
2022-12-11T15:24:52.636Z,9.88
2022-12-11T15:25:57.805Z,12.05